Time;durP1;ratioP1;P1;durP2;ratioP2;P2;SDS_P1;SDS_P2;PMS_P1;PMS_P2;Temp;Humidity;BMP_temperature;BMP_pressure;BME280_temperature;BME280_humidity;BME280_pressure;Samples;Min_cycle;Max_cycle;Signal;HPM_P1;HPM_P2
2023/03/19 00:01:29;;;;;;;5.88;3.72;;;;;;;;;;5071213;28;20091;-58
2023/03/19 00:03:55;;;;;;;6.22;3.22;;;;;;;;;;5072930;28;20041;-57
2023/03/19 00:06:21;;;;;;;4.35;3.30;;;;;;;;;;5073538;28;20032;-57
2023/03/19 00:08:47;;;;;;;4.78;3.53;;;;;;;;;;5072691;28;20051;-58
2023/03/19 00:11:14;;;;;;;4.65;2.47;;;;;;;;;;5072237;28;20062;-58
2023/03/19 00:13:40;;;;;;;7.13;4.60;;;;;;;;;;5073311;28;20044;-58
2023/03/19 00:16:06;;;;;;;5.20;3.10;;;;;;;;;;5072067;28;20043;-58
2023/03/19 00:18:32;;;;;;;5.40;3.10;;;;;;;;;;5071823;28;20045;-57
2023/03/19 00:20:59;;;;;;;5.53;3.85;;;;;;;;;;5071137;28;20040;-58
2023/03/19 00:23:25;;;;;;;8.95;3.70;;;;;;;;;;5072283;28;20037;-58
2023/03/19 00:25:53;;;;;;;5.93;4.15;;;;;;;;;;5071961;28;20045;-58
2023/03/19 00:28:20;;;;;;;5.90;3.08;;;;;;;;;;5070853;28;20049;-57
2023/03/19 00:30:46;;;;;;;7.53;3.25;;;;;;;;;;5069760;28;20044;-58
2023/03/19 00:33:12;;;;;;;4.63;2.60;;;;;;;;;;5070402;28;21654;-57
2023/03/19 00:35:39;;;;;;;4.38;2.58;;;;;;;;;;5070752;28;20043;-57
2023/03/19 00:38:05;;;;;;;3.72;3.03;;;;;;;;;;5071830;28;20054;-57
2023/03/19 00:40:32;;;;;;;5.85;3.47;;;;;;;;;;5072510;28;20625;-58
2023/03/19 00:42:58;;;;;;;4.95;2.63;;;;;;;;;;5072609;28;20793;-58
2023/03/19 00:45:24;;;;;;;6.93;3.33;;;;;;;;;;5073135;28;20037;-58
2023/03/19 00:47:50;;;;;;;5.45;3.13;;;;;;;;;;5071195;28;20052;-58
2023/03/19 00:50:16;;;;;;;4.32;3.33;;;;;;;;;;5071441;28;20114;-58
2023/03/19 00:52:42;;;;;;;5.35;2.85;;;;;;;;;;5047721;28;20128;-58
2023/03/19 00:55:08;;;;;;;5.95;2.78;;;;;;;;;;5051938;28;20138;-59
2023/03/19 00:57:35;;;;;;;6.18;3.35;;;;;;;;;;5071164;28;20162;-58
2023/03/19 01:00:01;;;;;;;8.02;2.88;;;;;;;;;;5043504;28;20036;-58
2023/03/19 01:02:27;;;;;;;5.25;2.58;;;;;;;;;;5072596;28;20037;-58
2023/03/19 01:04:53;;;;;;;5.35;3.97;;;;;;;;;;5045574;28;20043;-58
2023/03/19 01:07:20;;;;;;;4.65;2.83;;;;;;;;;;5072734;28;20150;-58
2023/03/19 01:09:46;;;;;;;7.20;2.83;;;;;;;;;;5069640;28;20107;-58
2023/03/19 01:12:12;;;;;;;5.32;3.00;;;;;;;;;;5071042;28;20226;-58
2023/03/19 01:14:38;;;;;;;7.05;3.00;;;;;;;;;;5070882;28;20071;-58
2023/03/19 01:17:05;;;;;;;5.22;2.72;;;;;;;;;;5073097;28;20049;-58
2023/03/19 01:19:31;;;;;;;4.85;2.85;;;;;;;;;;5069578;28;20047;-58
2023/03/19 01:21:57;;;;;;;5.85;3.60;;;;;;;;;;5072821;28;20048;-58
2023/03/19 01:24:23;;;;;;;6.32;3.35;;;;;;;;;;5050611;28;20540;-58
2023/03/19 01:26:50;;;;;;;4.88;2.50;;;;;;;;;;5069732;28;20074;-59
2023/03/19 01:29:16;;;;;;;4.25;2.50;;;;;;;;;;5072439;28;20917;-58
2023/03/19 01:31:42;;;;;;;4.70;2.63;;;;;;;;;;5069857;28;20450;-58
2023/03/19 01:34:08;;;;;;;6.80;2.60;;;;;;;;;;5069766;28;20463;-58
2023/03/19 01:36:34;;;;;;;5.40;3.08;;;;;;;;;;5066083;28;20925;-58
2023/03/19 01:39:00;;;;;;;7.18;2.67;;;;;;;;;;5068852;28;20094;-58
2023/03/19 01:41:26;;;;;;;9.45;2.75;;;;;;;;;;5070139;28;20037;-58
2023/03/19 01:43:52;;;;;;;8.07;3.40;;;;;;;;;;5067053;28;20753;-58
2023/03/19 01:46:30;;;;;;;9.02;3.03;;;;;;;;;;5074041;28;20043;-58
2023/03/19 01:48:58;;;;;;;6.85;3.50;;;;;;;;;;5070485;28;20075;-58
2023/03/19 01:51:26;;;;;;;9.70;2.72;;;;;;;;;;5073537;28;20543;-58
2023/03/19 01:53:55;;;;;;;5.38;2.97;;;;;;;;;;5073986;28;20123;-58
2023/03/19 01:56:23;;;;;;;6.72;3.22;;;;;;;;;;5072616;28;20482;-58
2023/03/19 01:58:52;;;;;;;4.93;2.90;;;;;;;;;;5074617;28;20033;-58
2023/03/19 02:01:19;;;;;;;5.07;2.55;;;;;;;;;;5074863;28;20578;-58
2023/03/19 02:03:45;;;;;;;6.50;3.28;;;;;;;;;;5050627;28;20083;-58
2023/03/19 02:06:13;;;;;;;7.65;2.55;;;;;;;;;;5073206;28;20045;-58
2023/03/19 02:08:40;;;;;;;8.00;3.22;;;;;;;;;;5070873;28;20835;-59
2023/03/19 02:11:06;;;;;;;5.60;2.50;;;;;;;;;;5075057;28;20614;-58
2023/03/19 02:13:33;;;;;;;4.35;2.85;;;;;;;;;;5074268;28;20131;-58
2023/03/19 02:16:00;;;;;;;4.18;2.72;;;;;;;;;;5071351;28;20616;-58
2023/03/19 02:18:26;;;;;;;4.93;2.88;;;;;;;;;;5072934;28;20399;-58
2023/03/19 02:21:09;;;;;;;4.72;2.50;;;;;;;;;;5072999;28;20139;-58
2023/03/19 02:23:39;;;;;;;5.75;2.45;;;;;;;;;;5071719;28;20041;-58
2023/03/19 02:26:05;;;;;;;4.30;2.60;;;;;;;;;;5071284;28;20064;-59
2023/03/19 02:28:32;;;;;;;5.93;2.55;;;;;;;;;;5073561;28;20877;-58
2023/03/19 02:30:58;;;;;;;5.65;2.33;;;;;;;;;;5055358;28;20040;-58
2023/03/19 02:33:24;;;;;;;4.82;2.80;;;;;;;;;;5073498;28;20613;-58
2023/03/19 02:35:51;;;;;;;7.03;2.95;;;;;;;;;;5070314;28;20044;-58
2023/03/19 02:38:21;;;;;;;4.82;2.60;;;;;;;;;;5072963;28;20051;-58
2023/03/19 02:40:50;;;;;;;5.88;3.22;;;;;;;;;;5073065;28;20573;-58
2023/03/19 02:43:16;;;;;;;5.85;3.30;;;;;;;;;;5071795;28;20940;-58
2023/03/19 02:45:42;;;;;;;4.57;2.63;;;;;;;;;;5074271;28;20068;-58
2023/03/19 02:48:09;;;;;;;6.10;3.13;;;;;;;;;;5072367;28;20592;-58
2023/03/19 02:50:35;;;;;;;5.22;3.47;;;;;;;;;;5069810;28;20039;-58
2023/03/19 02:53:01;;;;;;;4.30;2.50;;;;;;;;;;5070073;28;20128;-58
2023/03/19 02:55:27;;;;;;;6.32;3.33;;;;;;;;;;5072151;28;20072;-58
2023/03/19 02:57:54;;;;;;;5.82;2.88;;;;;;;;;;5066736;28;20044;-59
2023/03/19 03:00:20;;;;;;;4.78;2.95;;;;;;;;;;5070116;28;20376;-58
2023/03/19 03:02:46;;;;;;;4.45;3.22;;;;;;;;;;5069621;28;20072;-58
2023/03/19 03:05:13;;;;;;;4.80;2.88;;;;;;;;;;5070088;28;20036;-58
2023/03/19 03:07:42;;;;;;;4.50;2.45;;;;;;;;;;5072903;28;20376;-58
2023/03/19 03:10:08;;;;;;;4.43;2.78;;;;;;;;;;5070129;28;20083;-58
2023/03/19 03:12:34;;;;;;;6.90;3.00;;;;;;;;;;5071842;28;20224;-58
2023/03/19 03:15:00;;;;;;;3.85;2.47;;;;;;;;;;5072411;28;20083;-58
2023/03/19 03:17:27;;;;;;;5.43;2.88;;;;;;;;;;5072328;28;21142;-58
2023/03/19 03:19:53;;;;;;;6.38;3.38;;;;;;;;;;5072994;28;20646;-58
2023/03/19 03:22:19;;;;;;;5.78;2.80;;;;;;;;;;5073796;28;20040;-58
2023/03/19 03:24:45;;;;;;;5.78;2.55;;;;;;;;;;5071012;28;20048;-58
2023/03/19 03:27:11;;;;;;;5.07;3.03;;;;;;;;;;5070140;28;20051;-58
2023/03/19 03:29:37;;;;;;;9.68;2.80;;;;;;;;;;5072592;28;20612;-58
2023/03/19 03:32:03;;;;;;;5.90;2.53;;;;;;;;;;5072259;28;20109;-58
2023/03/19 03:34:29;;;;;;;5.07;2.28;;;;;;;;;;5071150;28;20530;-58
2023/03/19 03:36:55;;;;;;;6.72;2.88;;;;;;;;;;5071040;28;20272;-57
2023/03/19 03:39:21;;;;;;;6.55;2.55;;;;;;;;;;5071649;28;20033;-57
2023/03/19 03:41:48;;;;;;;7.75;3.40;;;;;;;;;;5072518;28;20040;-57
2023/03/19 03:44:14;;;;;;;6.40;2.80;;;;;;;;;;5072687;28;20074;-58
2023/03/19 03:46:42;;;;;;;4.47;3.00;;;;;;;;;;5072686;28;20048;-58
2023/03/19 03:49:08;;;;;;;4.03;3.00;;;;;;;;;;5071980;28;20045;-57
2023/03/19 03:51:35;;;;;;;9.02;3.80;;;;;;;;;;5072841;28;20045;-58
2023/03/19 03:54:01;;;;;;;5.13;2.60;;;;;;;;;;5070736;28;20041;-57
2023/03/19 03:56:27;;;;;;;6.35;2.53;;;;;;;;;;5074144;28;20072;-57
2023/03/19 03:58:53;;;;;;;4.53;2.53;;;;;;;;;;5072288;28;20168;-57
2023/03/19 04:01:20;;;;;;;4.15;2.90;;;;;;;;;;5073184;28;20044;-58
2023/03/19 04:03:46;;;;;;;8.90;4.28;;;;;;;;;;5069319;28;20041;-57
2023/03/19 04:06:14;;;;;;;8.40;3.10;;;;;;;;;;5072945;28;20615;-58
2023/03/19 04:08:41;;;;;;;5.57;4.57;;;;;;;;;;5071641;28;20791;-58
2023/03/19 04:11:07;;;;;;;6.22;3.15;;;;;;;;;;5073130;28;20143;-57
2023/03/19 04:13:35;;;;;;;5.63;2.75;;;;;;;;;;5071966;28;20110;-58
2023/03/19 04:16:03;;;;;;;4.53;3.00;;;;;;;;;;5071734;28;20045;-58
2023/03/19 04:18:29;;;;;;;5.40;3.33;;;;;;;;;;5074393;28;20145;-58
2023/03/19 04:20:56;;;;;;;8.23;3.83;;;;;;;;;;5047536;28;20128;-58
2023/03/19 04:23:22;;;;;;;5.10;3.17;;;;;;;;;;5072541;28;20048;-57
2023/03/19 04:25:49;;;;;;;10.15;3.00;;;;;;;;;;5073404;28;20036;-58
2023/03/19 04:28:15;;;;;;;5.07;3.15;;;;;;;;;;5073344;28;20048;-57
2023/03/19 04:30:42;;;;;;;4.43;3.00;;;;;;;;;;5072320;28;20044;-57
2023/03/19 04:33:09;;;;;;;9.75;3.83;;;;;;;;;;5073471;28;20141;-58
2023/03/19 04:35:36;;;;;;;8.15;3.42;;;;;;;;;;5073433;28;20060;-58
2023/03/19 04:38:02;;;;;;;7.93;3.60;;;;;;;;;;5054671;28;20103;-58
2023/03/19 04:40:28;;;;;;;11.05;4.00;;;;;;;;;;5053871;28;20074;-58
2023/03/19 04:42:54;;;;;;;7.43;2.90;;;;;;;;;;5072493;28;20083;-58
2023/03/19 04:45:20;;;;;;;6.40;3.33;;;;;;;;;;5071997;28;20040;-57
2023/03/19 04:47:46;;;;;;;10.90;3.42;;;;;;;;;;5071952;28;20036;-57
2023/03/19 04:50:13;;;;;;;6.05;3.78;;;;;;;;;;5072386;28;20055;-57
2023/03/19 04:52:39;;;;;;;5.93;3.25;;;;;;;;;;5071230;28;20561;-57
2023/03/19 04:55:06;;;;;;;7.07;2.90;;;;;;;;;;5071156;28;20075;-58
2023/03/19 04:57:32;;;;;;;5.45;2.90;;;;;;;;;;5073898;28;20040;-57
2023/03/19 04:59:59;;;;;;;6.35;3.20;;;;;;;;;;5072283;28;20040;-57
2023/03/19 05:02:26;;;;;;;5.97;2.83;;;;;;;;;;5070262;28;20071;-57
2023/03/19 05:04:53;;;;;;;8.35;3.42;;;;;;;;;;5073185;28;20047;-57
2023/03/19 05:07:19;;;;;;;7.75;4.22;;;;;;;;;;5073187;28;20043;-57
2023/03/19 05:09:46;;;;;;;13.85;3.22;;;;;;;;;;5071932;28;20048;-58
2023/03/19 05:12:12;;;;;;;5.97;3.08;;;;;;;;;;5071985;28;20738;-58
2023/03/19 05:14:39;;;;;;;6.72;3.30;;;;;;;;;;5072388;28;20044;-57
2023/03/19 05:17:06;;;;;;;6.57;3.60;;;;;;;;;;5072466;28;20127;-58
2023/03/19 05:19:32;;;;;;;7.28;3.42;;;;;;;;;;5070352;28;21356;-58
2023/03/19 05:21:59;;;;;;;10.75;3.25;;;;;;;;;;5071571;28;20110;-58
2023/03/19 05:24:25;;;;;;;6.13;4.07;;;;;;;;;;5070864;28;20040;-57
2023/03/19 05:26:51;;;;;;;7.95;3.25;;;;;;;;;;5071628;28;20045;-58
2023/03/19 05:29:17;;;;;;;7.60;3.85;;;;;;;;;;5068786;28;20548;-58
2023/03/19 05:31:43;;;;;;;4.65;3.42;;;;;;;;;;5070323;28;20587;-58
2023/03/19 05:34:09;;;;;;;6.80;3.25;;;;;;;;;;5046167;28;20129;-58
2023/03/19 05:36:35;;;;;;;6.10;3.95;;;;;;;;;;5066174;28;20040;-57
2023/03/19 05:39:02;;;;;;;5.22;3.10;;;;;;;;;;5069445;28;20643;-57
2023/03/19 05:41:28;;;;;;;6.80;3.25;;;;;;;;;;5069160;28;20044;-57
2023/03/19 05:43:54;;;;;;;7.53;3.97;;;;;;;;;;5052798;28;20090;-57
2023/03/19 05:46:21;;;;;;;5.05;3.78;;;;;;;;;;5072037;28;20068;-57
2023/03/19 05:48:47;;;;;;;7.13;3.72;;;;;;;;;;5047590;28;20190;-57
2023/03/19 05:51:13;;;;;;;8.20;4.05;;;;;;;;;;5070956;28;20056;-58
2023/03/19 05:53:39;;;;;;;6.50;3.70;;;;;;;;;;5070877;28;20064;-58
2023/03/19 05:56:05;;;;;;;7.70;4.25;;;;;;;;;;5044862;28;20054;-58
2023/03/19 05:58:31;;;;;;;9.48;4.70;;;;;;;;;;5071814;28;20040;-58
2023/03/19 06:00:57;;;;;;;6.38;3.67;;;;;;;;;;5071434;28;20067;-58
2023/03/19 06:03:25;;;;;;;10.55;4.68;;;;;;;;;;5072931;28;20119;-58
2023/03/19 06:05:51;;;;;;;5.72;3.95;;;;;;;;;;5054514;28;20041;-58
2023/03/19 06:08:17;;;;;;;9.07;4.50;;;;;;;;;;5071962;28;20045;-58
2023/03/19 06:10:43;;;;;;;9.70;5.05;;;;;;;;;;5069546;28;20617;-58
2023/03/19 06:13:10;;;;;;;11.00;5.93;;;;;;;;;;5071058;28;20127;-57
2023/03/19 06:15:36;;;;;;;9.35;4.35;;;;;;;;;;5070271;28;20714;-57
2023/03/19 06:18:02;;;;;;;9.57;5.32;;;;;;;;;;5054168;28;20041;-58
2023/03/19 06:20:28;;;;;;;11.68;5.68;;;;;;;;;;5072683;28;20044;-58
2023/03/19 06:22:54;;;;;;;10.88;4.85;;;;;;;;;;5069984;28;20130;-57
2023/03/19 06:25:21;;;;;;;8.27;4.35;;;;;;;;;;5070772;28;20037;-58
2023/03/19 06:27:47;;;;;;;9.25;5.50;;;;;;;;;;5069315;28;20074;-57
2023/03/19 06:30:13;;;;;;;10.13;4.32;;;;;;;;;;5074190;28;20045;-58
2023/03/19 06:32:40;;;;;;;10.73;4.40;;;;;;;;;;5073010;28;20161;-58
2023/03/19 06:35:07;;;;;;;9.60;5.00;;;;;;;;;;5075921;28;20094;-57
2023/03/19 06:37:33;;;;;;;6.00;4.47;;;;;;;;;;5073331;28;20617;-57
2023/03/19 06:39:59;;;;;;;10.18;4.22;;;;;;;;;;5073256;28;20075;-57
2023/03/19 06:42:25;;;;;;;12.73;4.78;;;;;;;;;;5071866;28;20044;-57
2023/03/19 06:44:51;;;;;;;9.15;4.90;;;;;;;;;;5066767;28;20572;-58
2023/03/19 06:47:18;;;;;;;8.02;4.25;;;;;;;;;;5074151;28;20110;-58
2023/03/19 06:49:44;;;;;;;7.60;4.13;;;;;;;;;;5074265;28;20053;-58
2023/03/19 06:52:10;;;;;;;7.30;4.88;;;;;;;;;;5074444;28;20064;-58
2023/03/19 06:54:36;;;;;;;8.20;5.07;;;;;;;;;;5074682;28;20037;-58
2023/03/19 06:57:02;;;;;;;8.68;4.25;;;;;;;;;;5069221;28;20529;-58
2023/03/19 06:59:28;;;;;;;8.57;4.57;;;;;;;;;;5070112;28;20813;-57
2023/03/19 07:01:55;;;;;;;12.57;4.80;;;;;;;;;;5066597;28;20495;-58
2023/03/19 07:04:21;;;;;;;9.30;6.53;;;;;;;;;;5070143;28;20060;-58
2023/03/19 07:06:47;;;;;;;12.32;6.50;;;;;;;;;;5074686;28;20044;-58
2023/03/19 07:09:13;;;;;;;11.00;6.30;;;;;;;;;;5072340;28;20127;-57
2023/03/19 07:11:40;;;;;;;9.07;5.55;;;;;;;;;;5073420;28;20136;-57
2023/03/19 07:14:06;;;;;;;11.90;6.10;;;;;;;;;;5072625;28;20090;-58
2023/03/19 07:16:32;;;;;;;10.07;4.18;;;;;;;;;;5073831;28;20134;-57
2023/03/19 07:18:58;;;;;;;10.85;4.40;;;;;;;;;;5070227;28;20139;-57
2023/03/19 07:21:24;;;;;;;7.53;4.15;;;;;;;;;;5046571;28;20052;-57
2023/03/19 07:23:50;;;;;;;7.65;3.88;;;;;;;;;;5072676;28;20066;-57
2023/03/19 07:26:17;;;;;;;6.38;3.97;;;;;;;;;;5075112;28;21195;-57
2023/03/19 07:28:43;;;;;;;5.68;3.10;;;;;;;;;;5072710;28;20436;-58
2023/03/19 07:31:09;;;;;;;9.00;3.83;;;;;;;;;;5073615;28;20511;-57
2023/03/19 07:33:35;;;;;;;7.55;3.40;;;;;;;;;;5074482;28;20075;-58
2023/03/19 07:36:01;;;;;;;4.03;2.80;;;;;;;;;;5074383;28;20051;-58
2023/03/19 07:38:28;;;;;;;7.40;2.80;;;;;;;;;;5072743;28;20694;-58
2023/03/19 07:40:54;;;;;;;8.75;4.03;;;;;;;;;;5072601;28;20049;-58
2023/03/19 07:43:20;;;;;;;5.32;2.90;;;;;;;;;;5071379;28;20094;-58
2023/03/19 07:45:46;;;;;;;10.95;2.72;;;;;;;;;;5072927;28;20054;-58
2023/03/19 07:48:12;;;;;;;5.25;2.58;;;;;;;;;;5073293;28;20043;-57
2023/03/19 07:50:38;;;;;;;4.43;2.25;;;;;;;;;;5073335;28;20090;-58
2023/03/19 07:53:05;;;;;;;4.03;2.03;;;;;;;;;;5073678;28;20202;-58
2023/03/19 07:55:31;;;;;;;7.68;2.67;;;;;;;;;;5072332;28;20049;-57
2023/03/19 07:57:57;;;;;;;9.13;3.75;;;;;;;;;;5071363;28;20056;-57
2023/03/19 08:00:23;;;;;;;9.55;4.45;;;;;;;;;;5072380;28;20045;-58
2023/03/19 08:02:49;;;;;;;6.22;2.90;;;;;;;;;;5073164;28;20040;-58
2023/03/19 08:05:15;;;;;;;7.70;3.00;;;;;;;;;;5073787;28;20041;-58
2023/03/19 08:07:41;;;;;;;5.82;2.60;;;;;;;;;;5073286;28;20044;-58
2023/03/19 08:10:08;;;;;;;6.78;3.17;;;;;;;;;;5068947;28;20095;-58
2023/03/19 08:12:39;;;;;;;5.40;2.78;;;;;;;;;;5072956;28;20565;-58
2023/03/19 08:15:06;;;;;;;7.80;2.97;;;;;;;;;;5055459;28;20037;-58
2023/03/19 08:17:37;;;;;;;10.77;3.58;;;;;;;;;;5071793;28;20052;-58
2023/03/19 08:20:21;;;;;;;4.90;1.67;;;;;;;;;;5069051;28;20615;-59
2023/03/19 08:22:49;;;;;;;4.82;2.33;;;;;;;;;;5070000;28;21194;-58
2023/03/19 08:25:16;;;;;;;4.30;2.85;;;;;;;;;;5065240;28;20097;-58
2023/03/19 08:27:42;;;;;;;7.38;3.13;;;;;;;;;;5069918;28;20098;-58
2023/03/19 08:30:09;;;;;;;8.00;4.97;;;;;;;;;;5064243;28;21296;-58
2023/03/19 08:32:35;;;;;;;7.47;2.80;;;;;;;;;;5071904;28;20516;-58
2023/03/19 08:35:01;;;;;;;7.78;3.55;;;;;;;;;;5072229;28;20537;-59
2023/03/19 08:37:27;;;;;;;6.68;2.90;;;;;;;;;;5046232;28;20079;-59
2023/03/19 08:39:54;;;;;;;7.95;2.78;;;;;;;;;;5071211;28;20044;-58
2023/03/19 08:42:20;;;;;;;5.35;3.03;;;;;;;;;;5070190;28;20446;-58
2023/03/19 08:44:46;;;;;;;9.00;3.63;;;;;;;;;;5072412;28;20501;-59
2023/03/19 08:47:12;;;;;;;4.82;2.83;;;;;;;;;;5071608;28;20045;-58
2023/03/19 08:49:38;;;;;;;7.68;3.13;;;;;;;;;;5073074;28;20044;-59
2023/03/19 08:52:05;;;;;;;6.65;2.92;;;;;;;;;;5068487;28;20075;-58
2023/03/19 08:54:31;;;;;;;7.47;2.80;;;;;;;;;;5068287;28;20922;-58
2023/03/19 08:56:57;;;;;;;6.03;2.33;;;;;;;;;;5066176;28;20044;-59
2023/03/19 08:59:23;;;;;;;10.23;2.78;;;;;;;;;;5066937;28;20040;-59
2023/03/19 09:01:53;;;;;;;4.85;2.60;;;;;;;;;;5049899;28;20056;-58
2023/03/19 09:04:20;;;;;;;4.93;2.53;;;;;;;;;;5067261;28;20059;-58
2023/03/19 09:06:50;;;;;;;4.07;2.60;;;;;;;;;;5068064;28;20590;-58
2023/03/19 09:09:16;;;;;;;6.45;2.80;;;;;;;;;;5065759;28;20602;-58
2023/03/19 09:11:42;;;;;;;7.55;2.60;;;;;;;;;;5069675;28;20053;-58
2023/03/19 09:14:10;;;;;;;4.65;2.80;;;;;;;;;;5070253;28;20093;-58
2023/03/19 09:16:36;;;;;;;6.30;2.08;;;;;;;;;;5068781;28;20048;-58
2023/03/19 09:19:02;;;;;;;6.35;2.90;;;;;;;;;;5071480;28;20162;-58
2023/03/19 09:21:29;;;;;;;3.55;2.45;;;;;;;;;;5070185;28;20412;-58
2023/03/19 09:23:55;;;;;;;4.50;2.03;;;;;;;;;;5069235;28;20161;-58
2023/03/19 09:26:21;;;;;;;5.32;1.77;;;;;;;;;;5070364;28;20040;-58
2023/03/19 09:28:47;;;;;;;3.78;1.90;;;;;;;;;;5069250;28;20098;-58
2023/03/19 09:31:13;;;;;;;5.35;1.83;;;;;;;;;;5067058;28;20044;-58
2023/03/19 09:33:39;;;;;;;3.47;1.70;;;;;;;;;;5068096;28;20045;-58
2023/03/19 09:36:05;;;;;;;2.88;1.50;;;;;;;;;;5066252;28;20041;-58
2023/03/19 09:38:32;;;;;;;4.20;2.60;;;;;;;;;;5067246;28;20546;-58
2023/03/19 09:41:01;;;;;;;5.20;3.20;;;;;;;;;;5070477;28;20116;-58
2023/03/19 09:43:36;;;;;;;3.83;2.75;;;;;;;;;;5068591;28;20513;-58
2023/03/19 09:46:05;;;;;;;3.55;1.60;;;;;;;;;;5068679;28;20143;-58
2023/03/19 09:48:36;;;;;;;5.80;2.38;;;;;;;;;;5069276;28;20050;-59
2023/03/19 09:51:03;;;;;;;2.90;1.45;;;;;;;;;;5051015;28;20068;-59
2023/03/19 09:53:38;;;;;;;1.73;1.17;;;;;;;;;;5069290;28;20040;-59
2023/03/19 09:56:06;;;;;;;4.30;1.08;;;;;;;;;;5047808;28;20704;-59
2023/03/19 09:58:34;;;;;;;2.40;1.95;;;;;;;;;;5067967;28;20080;-59
2023/03/19 10:01:01;;;;;;;3.17;1.73;;;;;;;;;;5061886;28;20040;-59
2023/03/19 10:03:30;;;;;;;3.60;1.98;;;;;;;;;;5070121;28;20124;-59
2023/03/19 10:05:56;;;;;;;5.13;1.98;;;;;;;;;;5071541;28;20041;-59
2023/03/19 10:08:41;;;;;;;3.08;2.28;;;;;;;;;;5069360;28;20063;-58
2023/03/19 10:11:14;;;;;;;3.28;1.60;;;;;;;;;;5069631;28;20053;-59
2023/03/19 10:14:03;;;;;;;2.33;1.48;;;;;;;;;;5040782;28;20447;-58
2023/03/19 10:16:30;;;;;;;2.30;1.63;;;;;;;;;;5028957;28;20060;-58
2023/03/19 10:19:00;;;;;;;3.72;2.45;;;;;;;;;;5074937;28;20048;-58
2023/03/19 10:21:35;;;;;;;4.40;1.75;;;;;;;;;;5049349;28;20045;-58
2023/03/19 10:24:11;;;;;;;3.78;2.28;;;;;;;;;;5072083;28;20564;-58
2023/03/19 10:26:37;;;;;;;3.72;1.80;;;;;;;;;;5069190;28;20040;-58
2023/03/19 10:29:08;;;;;;;2.13;1.88;;;;;;;;;;5069637;28;20508;-58
2023/03/19 10:31:43;;;;;;;6.38;2.17;;;;;;;;;;5071362;28;20048;-58
2023/03/19 10:34:19;;;;;;;5.07;2.67;;;;;;;;;;5072448;28;20041;-58
2023/03/19 10:36:45;;;;;;;12.32;4.38;;;;;;;;;;5070940;28;20105;-59
2023/03/19 10:39:13;;;;;;;4.18;2.78;;;;;;;;;;5066309;28;20043;-58
2023/03/19 10:41:58;;;;;;;8.05;4.53;;;;;;;;;;5069256;28;20039;-59
2023/03/19 10:44:24;;;;;;;9.38;3.25;;;;;;;;;;5067356;28;20055;-58
2023/03/19 10:46:50;;;;;;;6.75;4.07;;;;;;;;;;5071282;28;20044;-58
2023/03/19 10:49:16;;;;;;;6.03;3.08;;;;;;;;;;5070426;28;20040;-59
2023/03/19 10:51:45;;;;;;;7.15;2.55;;;;;;;;;;5046466;28;20048;-58
2023/03/19 10:54:24;;;;;;;7.97;3.83;;;;;;;;;;5069391;28;20048;-58
2023/03/19 10:56:51;;;;;;;11.23;5.63;;;;;;;;;;5066446;28;20464;-58
2023/03/19 10:59:25;;;;;;;6.70;3.53;;;;;;;;;;5047118;28;20045;-58
2023/03/19 11:01:56;;;;;;;9.48;4.85;;;;;;;;;;5068396;28;20045;-59
2023/03/19 11:04:22;;;;;;;8.73;2.90;;;;;;;;;;5065085;28;20044;-58
2023/03/19 11:06:50;;;;;;;5.47;2.88;;;;;;;;;;5044219;28;20142;-58
2023/03/19 11:09:23;;;;;;;5.13;2.35;;;;;;;;;;5049870;28;20581;-58
2023/03/19 11:11:52;;;;;;;5.47;2.10;;;;;;;;;;5066653;28;20056;-59
2023/03/19 11:14:18;;;;;;;5.65;3.10;;;;;;;;;;5064513;28;20213;-59
2023/03/19 11:17:05;;;;;;;5.65;2.60;;;;;;;;;;5068489;28;20271;-59
2023/03/19 11:19:33;;;;;;;8.00;3.47;;;;;;;;;;5044007;28;20908;-58
2023/03/19 11:22:05;;;;;;;3.45;1.80;;;;;;;;;;5063481;28;20040;-59
2023/03/19 11:24:32;;;;;;;6.32;3.22;;;;;;;;;;5068714;28;20055;-59
2023/03/19 11:26:59;;;;;;;11.98;5.53;;;;;;;;;;5068517;28;20055;-59
2023/03/19 11:29:26;;;;;;;12.20;6.18;;;;;;;;;;5068770;28;20032;-59
2023/03/19 11:32:11;;;;;;;9.40;4.70;;;;;;;;;;5068935;28;20527;-58
2023/03/19 11:34:56;;;;;;;5.57;2.30;;;;;;;;;;5069513;28;20980;-59
2023/03/19 11:37:41;;;;;;;2.85;1.65;;;;;;;;;;5068103;28;20040;-59
2023/03/19 11:40:22;;;;;;;4.22;1.70;;;;;;;;;;5068895;28;20033;-58
2023/03/19 11:42:51;;;;;;;7.53;2.53;;;;;;;;;;5067469;28;20133;-58
2023/03/19 11:45:23;;;;;;;4.18;2.15;;;;;;;;;;5064779;28;20094;-58
2023/03/19 11:47:56;;;;;;;2.65;1.45;;;;;;;;;;5068758;28;20083;-58
2023/03/19 11:50:38;;;;;;;7.38;2.78;;;;;;;;;;5062876;28;20572;-58
2023/03/19 11:53:04;;;;;;;;;;;;;;;;;;5069392;28;20579;-58
2023/03/19 11:55:36;;;;;;;2.50;1.70;;;;;;;;;;5067831;28;19927;-58
2023/03/19 11:58:02;;;;;;;;;;;;;;;;;;5067866;28;20056;-58
2023/03/19 12:00:28;;;;;;;6.65;2.15;;;;;;;;;;5069781;28;19920;-58
2023/03/19 12:03:00;;;;;;;5.82;2.30;;;;;;;;;;5072769;28;20043;-59
2023/03/19 12:05:35;;;;;;;7.00;1.95;;;;;;;;;;5065059;28;20105;-59
2023/03/19 12:08:10;;;;;;;5.35;1.67;;;;;;;;;;5069062;28;20116;-58
2023/03/19 12:10:42;;;;;;;4.40;1.90;;;;;;;;;;5072046;28;20131;-58
2023/03/19 12:13:27;;;;;;;3.45;1.58;;;;;;;;;;5073359;28;20049;-58
2023/03/19 12:16:12;;;;;;;7.82;2.15;;;;;;;;;;5072939;28;20860;-58
2023/03/19 12:18:38;;;;;;;5.53;2.17;;;;;;;;;;5072832;28;20494;-58
2023/03/19 12:21:26;;;;;;;2.63;1.67;;;;;;;;;;5072367;28;20047;-58
2023/03/19 12:24:02;;;;;;;5.15;2.60;;;;;;;;;;5070937;28;20028;-58
2023/03/19 12:26:36;;;;;;;3.60;0.85;;;;;;;;;;5070397;28;20124;-58
2023/03/19 12:29:22;;;;;;;1.63;1.10;;;;;;;;;;5072658;28;20041;-59
2023/03/19 12:32:08;;;;;;;3.75;1.38;;;;;;;;;;5066777;28;20041;-59
2023/03/19 12:34:43;;;;;;;4.10;1.70;;;;;;;;;;5016215;28;20056;-59
2023/03/19 12:37:28;;;;;;;3.40;1.45;;;;;;;;;;5043199;28;20048;-59
2023/03/19 12:40:03;;;;;;;5.88;1.77;;;;;;;;;;5066203;28;20475;-58
2023/03/19 12:42:32;;;;;;;4.57;1.63;;;;;;;;;;5044113;28;20135;-58
2023/03/19 12:44:59;;;;;;;3.72;1.67;;;;;;;;;;5069466;28;20094;-58
2023/03/19 12:47:30;;;;;;;3.92;1.27;;;;;;;;;;5068628;28;20041;-60
2023/03/19 12:49:56;;;;;;;2.90;1.17;;;;;;;;;;5072424;28;20045;-59
2023/03/19 12:52:22;;;;;;;3.42;1.50;;;;;;;;;;5070283;28;20090;-59
2023/03/19 12:54:55;;;;;;;4.90;2.53;;;;;;;;;;5069858;28;20048;-58
2023/03/19 12:57:23;;;;;;;2.58;1.23;;;;;;;;;;5070202;28;20036;-59
2023/03/19 12:59:49;;;;;;;2.47;1.27;;;;;;;;;;5067150;28;20044;-59
2023/03/19 13:02:20;;;;;;;2.28;0.88;;;;;;;;;;5042932;28;20431;-59
2023/03/19 13:04:52;;;;;;;0.90;0.73;;;;;;;;;;5071926;28;20111;-59
2023/03/19 13:07:22;;;;;;;4.05;1.20;;;;;;;;;;5044203;28;20519;-60
2023/03/19 13:09:52;;;;;;;1.17;0.82;;;;;;;;;;5068689;28;21677;-58
2023/03/19 13:12:21;;;;;;;2.05;1.00;;;;;;;;;;5071773;28;20049;-59
2023/03/19 13:14:52;;;;;;;1.60;0.80;;;;;;;;;;5071516;28;20047;-58
2023/03/19 13:17:26;;;;;;;1.60;0.85;;;;;;;;;;5067572;28;20041;-59
2023/03/19 13:19:53;;;;;;;1.65;0.70;;;;;;;;;;5070408;28;20660;-58
2023/03/19 13:22:32;;;;;;;4.72;0.75;;;;;;;;;;5069825;28;20136;-58
2023/03/19 13:24:59;;;;;;;6.03;1.30;;;;;;;;;;5069812;28;20036;-58
2023/03/19 13:27:29;;;;;;;4.68;2.03;;;;;;;;;;5070396;28;20075;-59
2023/03/19 13:29:55;;;;;;;3.08;1.45;;;;;;;;;;5071390;28;20098;-59
2023/03/19 13:32:26;;;;;;;2.40;0.85;;;;;;;;;;5072031;28;20045;-59
2023/03/19 13:35:07;;;;;;;2.92;1.10;;;;;;;;;;5070674;28;20600;-59
2023/03/19 13:37:34;;;;;;;1.75;1.10;;;;;;;;;;5072556;28;20041;-59
2023/03/19 13:40:03;;;;;;;2.63;0.90;;;;;;;;;;5074969;28;20581;-59
2023/03/19 13:42:37;;;;;;;2.72;1.35;;;;;;;;;;5075159;28;20084;-59
2023/03/19 13:45:23;;;;;;;3.50;1.55;;;;;;;;;;5075665;28;20043;-59
2023/03/19 13:47:50;;;;;;;6.20;1.83;;;;;;;;;;5054847;28;20530;-60
2023/03/19 13:50:19;;;;;;;4.53;1.85;;;;;;;;;;5075796;28;20125;-58
2023/03/19 13:52:52;;;;;;;5.25;1.83;;;;;;;;;;5072914;28;20040;-59
2023/03/19 13:55:24;;;;;;;3.42;1.15;;;;;;;;;;5069883;28;20037;-59
2023/03/19 13:58:47;;;;;;;4.85;1.55;;;;;;;;;;5075078;28;20048;-59
2023/03/19 14:01:02;;;;;;;3.17;1.35;;;;;;;;;;5071148;28;20054;-59
2023/03/19 14:03:33;;;;;;;4.78;1.60;;;;;;;;;;5072558;28;20944;-59
2023/03/19 14:06:00;;;;;;;6.30;1.83;;;;;;;;;;5070890;28;20056;-59
2023/03/19 14:08:32;;;;;;;3.78;1.70;;;;;;;;;;5073611;28;20608;-59
2023/03/19 14:10:58;;;;;;;;;;;;;;;;;;5073215;28;20056;-59
2023/03/19 14:13:30;;;;;;;3.30;1.70;;;;;;;;;;5068828;28;20743;-58
2023/03/19 14:16:00;;;;;;;6.28;1.60;;;;;;;;;;5072552;28;20920;-58
2023/03/19 14:18:29;;;;;;;5.75;1.60;;;;;;;;;;5056569;28;20044;-59
2023/03/19 14:21:00;;;;;;;4.30;1.63;;;;;;;;;;5072643;28;20032;-59
2023/03/19 14:23:27;;;;;;;6.68;2.58;;;;;;;;;;5045705;28;20147;-59
2023/03/19 14:28:53;;;;;;;4.75;1.63;;;;;;;;;;5073396;28;20561;-59
2023/03/19 14:31:22;;;;;;;4.55;1.42;;;;;;;;;;5073460;28;20084;-59
2023/03/19 14:34:11;;;;;;;2.97;1.17;;;;;;;;;;5072603;28;20036;-59
2023/03/19 14:36:40;;;;;;;3.70;1.50;;;;;;;;;;5019529;28;20048;-59
2023/03/19 14:39:20;;;;;;;4.95;1.70;;;;;;;;;;5072268;28;20045;-59
2023/03/19 14:41:49;;;;;;;4.45;2.20;;;;;;;;;;5072705;28;20121;-59
2023/03/19 14:44:34;;;;;;;5.13;1.67;;;;;;;;;;5069944;28;20062;-59
2023/03/19 14:47:18;;;;;;;2.63;1.30;;;;;;;;;;5070897;28;20485;-59
2023/03/19 14:49:44;;;;;;;3.70;1.67;;;;;;;;;;5070249;28;20045;-59
2023/03/19 14:52:22;;;;;;;9.55;3.45;;;;;;;;;;5070781;28;20481;-59
2023/03/19 14:54:50;;;;;;;3.95;1.40;;;;;;;;;;5071919;28;22112;-58